sensor_id;sensor_type;location;lat;lon;timestamp;temperature;humidity
11762;DHT22;5938;47.098;15.474;2022-09-12T00:00:06;11.20;99.90
11762;DHT22;5938;47.098;15.474;2022-09-12T00:04:10;11.20;99.90
11762;DHT22;5938;47.098;15.474;2022-09-12T00:08:13;11.20;99.90
11762;DHT22;5938;47.098;15.474;2022-09-12T00:12:17;11.20;99.90
11762;DHT22;5938;47.098;15.474;2022-09-12T00:16:23;11.30;99.90
11762;DHT22;5938;47.098;15.474;2022-09-12T00:20:26;11.30;99.90
11762;DHT22;5938;47.098;15.474;2022-09-12T00:24:29;11.30;99.90
11762;DHT22;5938;47.098;15.474;2022-09-12T00:28:35;11.20;99.90
11762;DHT22;5938;47.098;15.474;2022-09-12T00:32:40;11.20;99.90
11762;DHT22;5938;47.098;15.474;2022-09-12T00:36:43;11.10;99.90
11762;DHT22;5938;47.098;15.474;2022-09-12T00:40:47;11.00;99.90
11762;DHT22;5938;47.098;15.474;2022-09-12T00:44:52;10.90;99.90
11762;DHT22;5938;47.098;15.474;2022-09-12T00:48:59;10.80;99.90
11762;DHT22;5938;47.098;15.474;2022-09-12T00:53:05;10.70;99.90
11762;DHT22;5938;47.098;15.474;2022-09-12T00:57:10;10.60;99.90
11762;DHT22;5938;47.098;15.474;2022-09-12T01:01:16;10.60;99.90
11762;DHT22;5938;47.098;15.474;2022-09-12T01:05:22;10.60;99.90
11762;DHT22;5938;47.098;15.474;2022-09-12T01:09:27;10.60;99.90
11762;DHT22;5938;47.098;15.474;2022-09-12T01:13:31;10.60;99.90
11762;DHT22;5938;47.098;15.474;2022-09-12T01:17:47;10.70;99.90
11762;DHT22;5938;47.098;15.474;2022-09-12T01:22:05;10.80;99.90
11762;DHT22;5938;47.098;15.474;2022-09-12T01:26:25;10.90;99.90
11762;DHT22;5938;47.098;15.474;2022-09-12T01:30:46;10.80;99.90
11762;DHT22;5938;47.098;15.474;2022-09-12T01:34:56;10.80;99.90
11762;DHT22;5938;47.098;15.474;2022-09-12T01:39:05;10.80;99.90
11762;DHT22;5938;47.098;15.474;2022-09-12T01:43:18;10.70;99.90
11762;DHT22;5938;47.098;15.474;2022-09-12T01:47:32;10.60;99.90
11762;DHT22;5938;47.098;15.474;2022-09-12T01:51:43;10.50;99.90
11762;DHT22;5938;47.098;15.474;2022-09-12T01:55:52;10.50;99.90
11762;DHT22;5938;47.098;15.474;2022-09-12T02:00:03;10.50;99.90
11762;DHT22;5938;47.098;15.474;2022-09-12T02:04:10;10.60;99.90
11762;DHT22;5938;47.098;15.474;2022-09-12T02:08:19;10.50;99.90
11762;DHT22;5938;47.098;15.474;2022-09-12T02:12:28;10.50;99.90
11762;DHT22;5938;47.098;15.474;2022-09-12T02:16:38;10.40;99.90
11762;DHT22;5938;47.098;15.474;2022-09-12T02:20:46;10.30;99.90
11762;DHT22;5938;47.098;15.474;2022-09-12T02:24:54;10.30;99.90
11762;DHT22;5938;47.098;15.474;2022-09-12T02:28:59;10.20;99.90
11762;DHT22;5938;47.098;15.474;2022-09-12T02:33:06;10.10;99.90
11762;DHT22;5938;47.098;15.474;2022-09-12T02:37:22;10.00;99.90
11762;DHT22;5938;47.098;15.474;2022-09-12T02:41:27;10.00;99.90
11762;DHT22;5938;47.098;15.474;2022-09-12T02:45:31;9.90;99.90
11762;DHT22;5938;47.098;15.474;2022-09-12T02:49:35;10.00;99.90
11762;DHT22;5938;47.098;15.474;2022-09-12T02:53:41;9.90;99.90
11762;DHT22;5938;47.098;15.474;2022-09-12T02:57:44;10.00;99.90
11762;DHT22;5938;47.098;15.474;2022-09-12T03:02:05;10.10;99.90
11762;DHT22;5938;47.098;15.474;2022-09-12T03:06:16;10.30;99.90
11762;DHT22;5938;47.098;15.474;2022-09-12T03:10:26;10.40;99.90
11762;DHT22;5938;47.098;15.474;2022-09-12T03:14:57;10.60;99.90
11762;DHT22;5938;47.098;15.474;2022-09-12T03:19:11;10.60;99.90
11762;DHT22;5938;47.098;15.474;2022-09-12T03:23:23;10.70;99.90
11762;DHT22;5938;47.098;15.474;2022-09-12T03:27:33;11.00;99.90
11762;DHT22;5938;47.098;15.474;2022-09-12T03:31:48;11.10;99.90
11762;DHT22;5938;47.098;15.474;2022-09-12T03:35:52;11.20;99.90
11762;DHT22;5938;47.098;15.474;2022-09-12T03:39:55;11.20;99.90
11762;DHT22;5938;47.098;15.474;2022-09-12T03:44:00;11.20;99.90
11762;DHT22;5938;47.098;15.474;2022-09-12T03:48:04;11.20;99.90
11762;DHT22;5938;47.098;15.474;2022-09-12T03:52:08;11.40;99.90
11762;DHT22;5938;47.098;15.474;2022-09-12T03:56:11;11.40;99.90
11762;DHT22;5938;47.098;15.474;2022-09-12T04:00:17;11.40;99.90
11762;DHT22;5938;47.098;15.474;2022-09-12T04:04:20;11.40;99.90
11762;DHT22;5938;47.098;15.474;2022-09-12T04:08:24;11.50;99.90
11762;DHT22;5938;47.098;15.474;2022-09-12T04:12:28;11.50;99.90
11762;DHT22;5938;47.098;15.474;2022-09-12T04:16:33;11.60;99.90
11762;DHT22;5938;47.098;15.474;2022-09-12T04:20:36;11.60;99.90
11762;DHT22;5938;47.098;15.474;2022-09-12T04:24:39;11.60;99.90
11762;DHT22;5938;47.098;15.474;2022-09-12T04:28:43;11.60;99.90
11762;DHT22;5938;47.098;15.474;2022-09-12T04:32:49;11.70;99.90
11762;DHT22;5938;47.098;15.474;2022-09-12T04:36:52;11.70;99.90
11762;DHT22;5938;47.098;15.474;2022-09-12T04:40:56;11.70;99.90
11762;DHT22;5938;47.098;15.474;2022-09-12T04:44:59;11.70;99.90
11762;DHT22;5938;47.098;15.474;2022-09-12T04:49:04;11.70;99.90
11762;DHT22;5938;47.098;15.474;2022-09-12T04:53:07;11.60;99.90
11762;DHT22;5938;47.098;15.474;2022-09-12T04:57:11;11.40;99.90
11762;DHT22;5938;47.098;15.474;2022-09-12T05:01:16;11.40;99.90
11762;DHT22;5938;47.098;15.474;2022-09-12T05:05:21;11.40;99.90
11762;DHT22;5938;47.098;15.474;2022-09-12T05:09:25;11.50;99.90
11762;DHT22;5938;47.098;15.474;2022-09-12T05:13:30;11.50;99.90
11762;DHT22;5938;47.098;15.474;2022-09-12T05:17:33;11.40;99.90
11762;DHT22;5938;47.098;15.474;2022-09-12T05:21:38;11.50;99.90
11762;DHT22;5938;47.098;15.474;2022-09-12T05:25:47;11.50;99.90
11762;DHT22;5938;47.098;15.474;2022-09-12T05:29:51;11.60;99.90
11762;DHT22;5938;47.098;15.474;2022-09-12T05:33:55;11.60;99.90
11762;DHT22;5938;47.098;15.474;2022-09-12T05:37:59;11.50;99.90
11762;DHT22;5938;47.098;15.474;2022-09-12T05:42:04;11.40;99.90
11762;DHT22;5938;47.098;15.474;2022-09-12T05:46:09;11.40;99.90
11762;DHT22;5938;47.098;15.474;2022-09-12T05:50:13;11.30;99.90
11762;DHT22;5938;47.098;15.474;2022-09-12T05:54:18;11.40;99.90
11762;DHT22;5938;47.098;15.474;2022-09-12T05:58:22;11.40;99.90
11762;DHT22;5938;47.098;15.474;2022-09-12T06:02:25;11.40;99.90
11762;DHT22;5938;47.098;15.474;2022-09-12T06:06:29;11.50;99.90
11762;DHT22;5938;47.098;15.474;2022-09-12T06:10:34;11.50;99.90
11762;DHT22;5938;47.098;15.474;2022-09-12T06:14:38;11.60;99.90
11762;DHT22;5938;47.098;15.474;2022-09-12T06:18:45;11.70;99.90
11762;DHT22;5938;47.098;15.474;2022-09-12T06:22:52;11.80;99.90
11762;DHT22;5938;47.098;15.474;2022-09-12T06:26:56;11.90;99.90
11762;DHT22;5938;47.098;15.474;2022-09-12T06:31:03;12.10;99.90
11762;DHT22;5938;47.098;15.474;2022-09-12T06:35:07;12.20;99.90
11762;DHT22;5938;47.098;15.474;2022-09-12T06:39:12;12.40;99.90
11762;DHT22;5938;47.098;15.474;2022-09-12T06:43:18;12.60;99.90
11762;DHT22;5938;47.098;15.474;2022-09-12T06:47:21;12.80;99.90
11762;DHT22;5938;47.098;15.474;2022-09-12T06:51:26;13.20;99.90
11762;DHT22;5938;47.098;15.474;2022-09-12T06:55:30;13.60;99.90
11762;DHT22;5938;47.098;15.474;2022-09-12T06:59:36;14.10;99.90
11762;DHT22;5938;47.098;15.474;2022-09-12T07:03:39;14.60;99.90
11762;DHT22;5938;47.098;15.474;2022-09-12T07:07:43;15.40;99.90
11762;DHT22;5938;47.098;15.474;2022-09-12T07:11:46;16.10;99.90
11762;DHT22;5938;47.098;15.474;2022-09-12T07:15:51;16.60;99.90
11762;DHT22;5938;47.098;15.474;2022-09-12T07:19:54;17.30;99.90
11762;DHT22;5938;47.098;15.474;2022-09-12T07:23:57;17.80;99.90
11762;DHT22;5938;47.098;15.474;2022-09-12T07:28:01;17.90;99.90
11762;DHT22;5938;47.098;15.474;2022-09-12T07:32:06;17.90;99.90
11762;DHT22;5938;47.098;15.474;2022-09-12T07:36:12;18.20;99.90
11762;DHT22;5938;47.098;15.474;2022-09-12T07:40:15;18.00;99.80
11762;DHT22;5938;47.098;15.474;2022-09-12T07:44:19;18.00;99.90
11762;DHT22;5938;47.098;15.474;2022-09-12T07:48:24;17.90;99.90
11762;DHT22;5938;47.098;15.474;2022-09-12T07:52:29;18.10;99.40
11762;DHT22;5938;47.098;15.474;2022-09-12T07:56:32;18.40;99.00
11762;DHT22;5938;47.098;15.474;2022-09-12T08:00:40;18.30;97.20
11762;DHT22;5938;47.098;15.474;2022-09-12T08:04:48;18.50;98.20
11762;DHT22;5938;47.098;15.474;2022-09-12T08:08:53;18.60;98.60
11762;DHT22;5938;47.098;15.474;2022-09-12T08:12:57;19.00;98.40
11762;DHT22;5938;47.098;15.474;2022-09-12T08:17:00;19.10;97.90
11762;DHT22;5938;47.098;15.474;2022-09-12T08:21:11;19.40;96.50
11762;DHT22;5938;47.098;15.474;2022-09-12T08:25:14;19.60;97.40
11762;DHT22;5938;47.098;15.474;2022-09-12T08:29:17;20.00;96.10
11762;DHT22;5938;47.098;15.474;2022-09-12T08:33:21;20.60;95.60
11762;DHT22;5938;47.098;15.474;2022-09-12T08:37:30;21.30;94.00
11762;DHT22;5938;47.098;15.474;2022-09-12T08:41:37;21.40;93.60
11762;DHT22;5938;47.098;15.474;2022-09-12T08:45:46;21.90;93.10
11762;DHT22;5938;47.098;15.474;2022-09-12T08:54:25;23.70;90.80
11762;DHT22;5938;47.098;15.474;2022-09-12T08:58:36;25.90;85.10
11762;DHT22;5938;47.098;15.474;2022-09-12T09:02:56;26.60;82.20
11762;DHT22;5938;47.098;15.474;2022-09-12T09:07:20;26.70;81.50
11762;DHT22;5938;47.098;15.474;2022-09-12T09:11:47;25.20;82.00
11762;DHT22;5938;47.098;15.474;2022-09-12T09:16:02;26.50;82.00
11762;DHT22;5938;47.098;15.474;2022-09-12T09:20:16;27.80;77.70
11762;DHT22;5938;47.098;15.474;2022-09-12T09:24:26;27.10;76.20
11762;DHT22;5938;47.098;15.474;2022-09-12T09:28:35;26.10;82.50
11762;DHT22;5938;47.098;15.474;2022-09-12T09:32:41;26.10;80.60
11762;DHT22;5938;47.098;15.474;2022-09-12T09:36:51;25.20;82.00
11762;DHT22;5938;47.098;15.474;2022-09-12T09:41:16;25.60;82.00
11762;DHT22;5938;47.098;15.474;2022-09-12T09:45:23;26.60;78.60
11762;DHT22;5938;47.098;15.474;2022-09-12T09:49:32;26.10;80.20
11762;DHT22;5938;47.098;15.474;2022-09-12T09:53:40;24.50;82.20
11762;DHT22;5938;47.098;15.474;2022-09-12T09:57:46;25.70;80.40
11762;DHT22;5938;47.098;15.474;2022-09-12T10:01:52;26.80;77.00
11762;DHT22;5938;47.098;15.474;2022-09-12T10:05:59;27.60;75.60
11762;DHT22;5938;47.098;15.474;2022-09-12T10:10:05;27.40;74.70
11762;DHT22;5938;47.098;15.474;2022-09-12T10:14:36;27.60;77.60
11762;DHT22;5938;47.098;15.474;2022-09-12T10:18:41;27.30;72.10
11762;DHT22;5938;47.098;15.474;2022-09-12T10:22:46;27.40;73.80
11762;DHT22;5938;47.098;15.474;2022-09-12T10:26:52;30.00;68.30
11762;DHT22;5938;47.098;15.474;2022-09-12T10:30:58;31.50;63.70
11762;DHT22;5938;47.098;15.474;2022-09-12T10:35:05;32.10;64.10
11762;DHT22;5938;47.098;15.474;2022-09-12T10:39:16;32.60;60.40
11762;DHT22;5938;47.098;15.474;2022-09-12T10:43:26;32.50;59.90
11762;DHT22;5938;47.098;15.474;2022-09-12T10:47:30;31.10;58.80
11762;DHT22;5938;47.098;15.474;2022-09-12T10:51:35;31.60;60.70
11762;DHT22;5938;47.098;15.474;2022-09-12T10:55:41;31.80;60.40
11762;DHT22;5938;47.098;15.474;2022-09-12T11:00:01;31.20;61.90
11762;DHT22;5938;47.098;15.474;2022-09-12T11:04:20;33.80;59.30
11762;DHT22;5938;47.098;15.474;2022-09-12T11:08:39;35.30;56.40
11762;DHT22;5938;47.098;15.474;2022-09-12T11:12:50;36.60;51.60
11762;DHT22;5938;47.098;15.474;2022-09-12T11:17:05;34.00;55.10
11762;DHT22;5938;47.098;15.474;2022-09-12T11:21:37;33.80;54.00
11762;DHT22;5938;47.098;15.474;2022-09-12T11:27:16;33.90;54.80
11762;DHT22;5938;47.098;15.474;2022-09-12T16:37:26;20.80;93.10
11762;DHT22;5938;47.098;15.474;2022-09-12T16:41:30;20.50;94.90
11762;DHT22;5938;47.098;15.474;2022-09-12T16:45:33;20.20;96.90
11762;DHT22;5938;47.098;15.474;2022-09-12T16:49:36;19.90;97.50
11762;DHT22;5938;47.098;15.474;2022-09-12T16:53:41;19.60;98.00
11762;DHT22;5938;47.098;15.474;2022-09-12T16:57:44;19.30;99.40
11762;DHT22;5938;47.098;15.474;2022-09-12T17:01:50;19.10;99.90
11762;DHT22;5938;47.098;15.474;2022-09-12T17:06:00;18.80;99.90
11762;DHT22;5938;47.098;15.474;2022-09-12T17:10:05;18.60;99.90
11762;DHT22;5938;47.098;15.474;2022-09-12T17:14:10;18.40;99.90
11762;DHT22;5938;47.098;15.474;2022-09-12T17:18:13;18.10;99.90
11762;DHT22;5938;47.098;15.474;2022-09-12T17:22:17;18.00;99.90
11762;DHT22;5938;47.098;15.474;2022-09-12T17:26:21;17.80;99.90
11762;DHT22;5938;47.098;15.474;2022-09-12T17:30:25;17.70;99.90
11762;DHT22;5938;47.098;15.474;2022-09-12T17:34:28;17.60;99.90
11762;DHT22;5938;47.098;15.474;2022-09-12T17:38:32;17.50;99.90
11762;DHT22;5938;47.098;15.474;2022-09-12T17:42:38;17.40;99.90
11762;DHT22;5938;47.098;15.474;2022-09-12T17:46:42;17.20;99.90
11762;DHT22;5938;47.098;15.474;2022-09-12T17:50:45;17.10;99.90
11762;DHT22;5938;47.098;15.474;2022-09-12T17:54:49;16.90;99.90
11762;DHT22;5938;47.098;15.474;2022-09-12T17:58:54;16.80;99.90
11762;DHT22;5938;47.098;15.474;2022-09-12T18:02:58;16.60;99.90
11762;DHT22;5938;47.098;15.474;2022-09-12T18:07:01;16.50;99.90
11762;DHT22;5938;47.098;15.474;2022-09-12T18:11:06;16.40;99.90
11762;DHT22;5938;47.098;15.474;2022-09-12T18:15:12;16.40;99.90
11762;DHT22;5938;47.098;15.474;2022-09-12T18:19:17;16.30;99.90
11762;DHT22;5938;47.098;15.474;2022-09-12T18:23:20;16.20;99.90
11762;DHT22;5938;47.098;15.474;2022-09-12T18:27:24;16.10;99.90
11762;DHT22;5938;47.098;15.474;2022-09-12T18:31:31;16.20;99.90
11762;DHT22;5938;47.098;15.474;2022-09-12T18:35:36;16.20;99.90
11762;DHT22;5938;47.098;15.474;2022-09-12T18:39:41;16.10;99.90
11762;DHT22;5938;47.098;15.474;2022-09-12T18:43:45;16.00;99.90
11762;DHT22;5938;47.098;15.474;2022-09-12T18:48:10;15.90;99.90
11762;DHT22;5938;47.098;15.474;2022-09-12T18:52:13;15.80;99.90
11762;DHT22;5938;47.098;15.474;2022-09-12T18:56:20;15.70;99.90
11762;DHT22;5938;47.098;15.474;2022-09-12T19:00:25;15.70;99.90
11762;DHT22;5938;47.098;15.474;2022-09-12T19:04:30;15.80;99.90
11762;DHT22;5938;47.098;15.474;2022-09-12T19:08:34;15.80;99.90
11762;DHT22;5938;47.098;15.474;2022-09-12T19:12:38;15.90;99.90
11762;DHT22;5938;47.098;15.474;2022-09-12T19:16:42;16.00;99.90
11762;DHT22;5938;47.098;15.474;2022-09-12T19:20:50;15.90;99.90
11762;DHT22;5938;47.098;15.474;2022-09-12T19:24:54;16.00;99.90
11762;DHT22;5938;47.098;15.474;2022-09-12T19:28:58;16.00;99.90
11762;DHT22;5938;47.098;15.474;2022-09-12T19:33:05;16.00;99.90
11762;DHT22;5938;47.098;15.474;2022-09-12T19:37:18;16.00;99.90
11762;DHT22;5938;47.098;15.474;2022-09-12T19:41:22;16.00;99.90
11762;DHT22;5938;47.098;15.474;2022-09-12T19:45:25;15.90;99.90
11762;DHT22;5938;47.098;15.474;2022-09-12T19:49:29;15.80;99.90
11762;DHT22;5938;47.098;15.474;2022-09-12T19:53:34;15.60;99.90
11762;DHT22;5938;47.098;15.474;2022-09-12T19:57:39;15.40;99.90
11762;DHT22;5938;47.098;15.474;2022-09-12T20:01:46;15.30;99.90
11762;DHT22;5938;47.098;15.474;2022-09-12T20:05:50;15.10;99.90
11762;DHT22;5938;47.098;15.474;2022-09-12T20:09:57;15.00;99.90
11762;DHT22;5938;47.098;15.474;2022-09-12T20:14:01;14.90;99.90
11762;DHT22;5938;47.098;15.474;2022-09-12T20:18:05;14.70;99.90
11762;DHT22;5938;47.098;15.474;2022-09-12T20:22:09;14.70;99.90
11762;DHT22;5938;47.098;15.474;2022-09-12T20:26:17;14.50;99.90
11762;DHT22;5938;47.098;15.474;2022-09-12T20:30:21;14.50;99.90
11762;DHT22;5938;47.098;15.474;2022-09-12T20:34:25;14.40;99.90
11762;DHT22;5938;47.098;15.474;2022-09-12T20:38:28;14.30;99.90
11762;DHT22;5938;47.098;15.474;2022-09-12T20:42:36;14.20;99.90
11762;DHT22;5938;47.098;15.474;2022-09-12T20:46:42;14.20;99.90
11762;DHT22;5938;47.098;15.474;2022-09-12T20:50:46;14.10;99.90
11762;DHT22;5938;47.098;15.474;2022-09-12T20:54:50;14.00;99.90
11762;DHT22;5938;47.098;15.474;2022-09-12T20:58:55;13.90;99.90
11762;DHT22;5938;47.098;15.474;2022-09-12T21:02:58;13.80;99.90
11762;DHT22;5938;47.098;15.474;2022-09-12T21:07:01;13.70;99.90
11762;DHT22;5938;47.098;15.474;2022-09-12T21:11:06;13.60;99.90
11762;DHT22;5938;47.098;15.474;2022-09-12T21:15:12;13.50;99.90
11762;DHT22;5938;47.098;15.474;2022-09-12T21:19:15;13.40;99.90
11762;DHT22;5938;47.098;15.474;2022-09-12T21:23:19;13.30;99.90
11762;DHT22;5938;47.098;15.474;2022-09-12T21:27:22;13.20;99.90
11762;DHT22;5938;47.098;15.474;2022-09-12T21:31:27;13.20;99.90
11762;DHT22;5938;47.098;15.474;2022-09-12T21:35:33;13.10;99.90
11762;DHT22;5938;47.098;15.474;2022-09-12T21:39:36;13.10;99.90
11762;DHT22;5938;47.098;15.474;2022-09-12T21:43:39;13.00;99.90
11762;DHT22;5938;47.098;15.474;2022-09-12T21:47:44;12.90;99.90
11762;DHT22;5938;47.098;15.474;2022-09-12T21:51:48;12.90;99.90
11762;DHT22;5938;47.098;15.474;2022-09-12T21:55:52;12.80;99.90
11762;DHT22;5938;47.098;15.474;2022-09-12T21:59:56;12.70;99.90
11762;DHT22;5938;47.098;15.474;2022-09-12T22:04:01;12.60;99.90
11762;DHT22;5938;47.098;15.474;2022-09-12T22:08:06;12.60;99.90
11762;DHT22;5938;47.098;15.474;2022-09-12T22:12:09;12.50;99.90
11762;DHT22;5938;47.098;15.474;2022-09-12T22:16:12;12.50;99.90
11762;DHT22;5938;47.098;15.474;2022-09-12T22:20:17;12.50;99.90
11762;DHT22;5938;47.098;15.474;2022-09-12T22:24:20;12.40;99.90
11762;DHT22;5938;47.098;15.474;2022-09-12T22:28:29;12.30;99.90
11762;DHT22;5938;47.098;15.474;2022-09-12T22:32:35;12.30;99.90
11762;DHT22;5938;47.098;15.474;2022-09-12T22:36:40;12.20;99.90
11762;DHT22;5938;47.098;15.474;2022-09-12T22:40:43;12.10;99.90
11762;DHT22;5938;47.098;15.474;2022-09-12T22:44:46;12.10;99.90
11762;DHT22;5938;47.098;15.474;2022-09-12T22:48:50;12.00;99.90
11762;DHT22;5938;47.098;15.474;2022-09-12T22:52:54;12.00;99.90
11762;DHT22;5938;47.098;15.474;2022-09-12T22:56:57;11.90;99.90
11762;DHT22;5938;47.098;15.474;2022-09-12T23:01:01;11.90;99.90
11762;DHT22;5938;47.098;15.474;2022-09-12T23:05:05;11.90;99.90
11762;DHT22;5938;47.098;15.474;2022-09-12T23:09:10;11.80;99.90
11762;DHT22;5938;47.098;15.474;2022-09-12T23:13:13;11.80;99.90
11762;DHT22;5938;47.098;15.474;2022-09-12T23:17:16;11.70;99.90
11762;DHT22;5938;47.098;15.474;2022-09-12T23:21:20;11.70;99.90
11762;DHT22;5938;47.098;15.474;2022-09-12T23:25:25;11.70;99.90
11762;DHT22;5938;47.098;15.474;2022-09-12T23:29:28;11.70;99.90
11762;DHT22;5938;47.098;15.474;2022-09-12T23:33:35;11.60;99.90
11762;DHT22;5938;47.098;15.474;2022-09-12T23:37:39;11.60;99.90
11762;DHT22;5938;47.098;15.474;2022-09-12T23:41:44;11.50;99.90
11762;DHT22;5938;47.098;15.474;2022-09-12T23:45:48;11.50;99.90
11762;DHT22;5938;47.098;15.474;2022-09-12T23:49:51;11.50;99.90
11762;DHT22;5938;47.098;15.474;2022-09-12T23:53:55;11.40;99.90
11762;DHT22;5938;47.098;15.474;2022-09-12T23:57:59;11.30;99.90
